Aviation Digital Data Service (ADDS)

Output produced by METARs form (0828 UTC 17 November 2018)
found at http://www.aviationweather.gov/metar/data/
 
ENAT 170750Z 33024KT 9999 BKN023 07/03 Q1017 RMK WIND 700FT 33024KT
TAF ENAT 170500Z 1706/1715 33012KT 9999 FEW015 BKN025 
     TEMPO 1706/1715 34015G25KT
       
ENAN 170820Z 31018KT 9999 VCSH FEW013 BKN022 06/03 Q1031
TAF ENAN 1706/1806 27022KT 9999 -SHRA FEW010 BKN020 
     BECMG 1710/1713 01012KT 
     BECMG 1718/1721 22008KT
       
ENML 170820Z 07004KT 9999 FEW006 SCT025 BKN055 09/08 Q1039
TAF ENML 170500Z 1706/1715 04005KT 9999 FEW025 BKN050
       
ENNA 170820Z AUTO 30026G43KT 270V330 9999 BKN026/// 07/02 Q1015 RMK WIND 1800FT 30043G56KT
TAF ENNA 1706/1806 34018KT 9999 -SHRA FEW010 BKN025 
     TEMPO 1706/1715 33020G35KT 
     TEMPO 1706/1721 BKN012 
     BECMG 1722/1724 18008KT
       
ENDU 170820Z 28011KT 9999 -SHRA FEW020 BKN035 05/03 Q1029 NOSIG RMK WIND 1100FT 28019KT WIND 2200FT 29032G43KT
TAF ENDU 1706/1806 27012KT 9999 FEW020 BKN040 
     TEMPO 1706/1709 26015G25KT 
     BECMG 1712/1715 VRB05KT
       
ENBR 170820Z 06002KT 9999 BKN011 08/06 Q1038 TEMPO BKN018 RMK WIND 1200FT 00000KT
TAF ENBR 1706/1806 VRB05KT 9999 BKN012 
     BECMG 1707/1709 BKN018 
     PROB30 1800/1806 0500 FG VV001
       
ENBO 170820Z 26016KT 6000 -DZRA FEW004 SCT008 BKN012 07/07 Q1034 TEMPO 4000 DZRA SCT004 BKN008
TAF ENBO 1706/1806 26018KT 9999 -SHRA FEW010 BKN025 
     TEMPO 1706/1718 SHRA BKN012 
     BECMG 1713/1715 09008KT
       
ENBL 170820Z VRB02KT 9999 VCFG SCT/// BKN025 07/07 Q1038
ENBN 170820Z AUTO 25004KT 220V300 9999NDV FEW017/// SCT020/// OVC028/// 07/06 Q1037
ENEV 170750Z 26010KT 220V290 8000 RADZ FEW008 OVC033 07/06 Q1030 RMK WIND 1400FT 25012KT
TAF ENEV 170500Z 1706/1714 25015KT 9999 FEW010 BKN020 
     BECMG 1707/1709 33008KT 
     TEMPO 1706/1712 BKN012
       
ENFL 170820Z 19006KT 9999 VCSH FEW006 SCT010 BKN015 10/08 Q1039
ENHD 170820Z 10006KT 9999 FEW015 03/02 Q1038
TAF ENHD 170500Z 1706/1715 13005KT 8000 FEW012 
     TEMPO 1706/1708 BKN012
       
ENKR 170820Z 28018KT 9999 -RA SCT013 BKN026 05/03 Q1009 RMK WIND 731FT 27034KT
TAF AMD ENKR 170643Z 1706/1715 27012KT 9999 FEW010 BKN030 
     BECMG 1709/1712 36020KT 
     TEMPO 1709/1715 SHRA BKN012
       
ENMS 170820Z 32006KT 280V020 9999 FEW018 BKN025 07/03 Q1036 RMK WIND 412FT 29006KT 230V320
ENCN 170820Z 06006KT 9999 BKN018 06/05 Q1039
TAF ENCN 170500Z 1706/1715 05005KT 9999 BKN018 
     TEMPO 1706/1715 BKN012
       
ENKB 170820Z 26002KT 9999 BKN007 09/08 Q1039 RMK WIND 745FT 26007KT
TAF AMD ENKB 170652Z 1706/1715 VRB05KT 9999 BKN015 
     TEMPO 1706/1712 BKN008
       
ENOL 170820Z 25005KT 9999 SCT007 BKN020 08/08 Q1039 TEMPO BKN007
TAF ENOL 1706/1806 VRB07KT 9999 BKN020 
     TEMPO 1706/1715 BKN008 
     PROB30 1706/1715 2000 BR BKN004 
     PROB30 1715/1720 0500 FG VV002 
     BECMG 1800/1803 10010KT
       
ENGM 170820Z 00000KT 9999 BKN007 04/03 Q1039 NOSIG
TAF ENGM 1706/1806 VRB05KT 9999 BKN012 
     TEMPO 1706/1718 BKN008 
     BECMG 1718/1720 SCT012 
     PROB30 1720/1806 0500 FG VV001
       
ENRO 170820Z AUTO 22007KT 0600NDV R13/1300U R31/1200U FG OVC001/// 01/01 Q1038
ENRY 170820Z 00000KT 7000 BKN012 05/04 Q1040
TAF ENRY 1706/1806 VRB05KT 9999 BKN020 
     TEMPO 1706/1720 BKN012 
     PROB30 1720/1806 0500 FG VV001
       
ENSG 170820Z 24001KT 9999 FEW025 03/03 Q1038 RMK WIND 3806FT 08007KT
ENZV 170820Z 16005KT 9999 R18/0100N R36/0225N R11/0250N BCFG NSC 00/00 Q1038 TEMPO 0400 FG
TAF AMD ENZV 1707/1806 VRB05KT 0400 FG VV002 
     BECMG 1709/1711 9999 FEW015 
     PROB30 1802/1806 1500 BCFG
       
ENTO 170820Z 33005KT 9000 OVC012 04/04 Q1040
TAF ENTO 1706/1806 VRB05KT 9999 BKN018 
     TEMPO 1706/1718 BKN008 
     PROB30 1720/1806 0500 FG VV001
       
ENTC 170820Z 32020KT 9999 -SHRA FEW005 SCT014 BKN020 06/03 Q1027 TEMPO BKN014 RMK WIND 2600FT 32037G49KT
TAF ENTC 1706/1806 29015KT 9999 -SHRA FEW010 BKN030 
     TEMPO 1706/1709 29030G40KT SHRA BKN014 
     BECMG 1709/1712 VRB08KT 
     BECMG 1800/1803 20010KT
       
ENVA 170820Z VRB02KT 9999 FEW016 BKN027 06/06 Q1039 TEMPO BKN012 RMK WIND 670FT 27006KT
TAF ENVA 1706/1806 VRB05KT 9999 SCT015 BKN020 
     TEMPO 1706/1712 4000 DZ BKN012 
     PROB30 1720/1806 0500 FG VV001
       
ENAL 170820Z 36003KT 9999 FEW006 SCT011 BKN053 10/09 Q1039
TAF ENAL 170500Z 1706/1715 02005KT 9999 FEW020 BKN030